Time;durP1;ratioP1;P1;durP2;ratioP2;P2;SDS_P1;SDS_P2;PMS_P1;PMS_P2;Temp;Humidity;BMP_temperature;BMP_pressure;BME280_temperature;BME280_humidity;BME280_pressure;Samples;Min_cycle;Max_cycle;Signal;HPM_P1;HPM_P2
2023/05/14 00:01:11;;;;;;;19.00;15.23;;;10.70;99.90;;;;;;5033052;28;20056;-37
2023/05/14 00:03:39;;;;;;;21.95;15.18;;;10.70;99.90;;;;;;5033450;28;20048;-43
2023/05/14 00:06:06;;;;;;;16.95;14.23;;;10.70;99.90;;;;;;5032852;28;20077;-38
2023/05/14 00:08:31;;;;;;;16.38;14.68;;;10.60;99.90;;;;;;5017403;28;20045;-36
2023/05/14 00:10:57;;;;;;;18.08;14.05;;;10.50;99.90;;;;;;5013161;28;20037;-40
2023/05/14 00:13:24;;;;;;;17.02;14.25;;;10.40;99.90;;;;;;5012900;28;20079;-42
2023/05/14 00:15:49;;;;;;;17.85;14.40;;;10.40;99.90;;;;;;5012054;28;20053;-42
2023/05/14 00:18:15;;;;;;;17.65;13.15;;;10.40;99.90;;;;;;5011571;28;20064;-37
2023/05/14 00:20:41;;;;;;;14.95;13.35;;;10.40;99.90;;;;;;5012335;28;20106;-38
2023/05/14 00:23:06;;;;;;;17.48;13.70;;;10.40;99.90;;;;;;5011308;28;20094;-42
2023/05/14 00:25:32;;;;;;;15.13;13.45;;;10.40;99.90;;;;;;4998745;28;20060;-42
2023/05/14 00:27:58;;;;;;;16.23;12.48;;;10.40;99.90;;;;;;5012693;28;20524;-38
2023/05/14 00:30:23;;;;;;;17.88;13.77;;;10.40;99.90;;;;;;5012684;28;20395;-46
2023/05/14 00:32:49;;;;;;;17.77;14.57;;;10.40;99.90;;;;;;5013095;28;20598;-42
2023/05/14 00:35:15;;;;;;;18.90;14.10;;;10.40;99.90;;;;;;4997695;28;20403;-40
2023/05/14 00:37:41;;;;;;;16.40;14.07;;;10.40;99.90;;;;;;5012836;28;20189;-37
2023/05/14 00:40:07;;;;;;;16.20;14.15;;;10.40;99.90;;;;;;5031959;28;20053;-36
2023/05/14 00:42:33;;;;;;;17.95;14.20;;;10.30;99.90;;;;;;5016830;28;20050;-44
2023/05/14 00:44:59;;;;;;;18.80;13.85;;;10.30;99.90;;;;;;5016531;28;20505;-40
2023/05/14 00:47:25;;;;;;;18.50;13.77;;;10.30;99.90;;;;;;5032452;28;20052;-44
2023/05/14 00:49:51;;;;;;;16.67;14.77;;;10.30;99.90;;;;;;5031595;28;20076;-36
2023/05/14 00:52:17;;;;;;;16.50;14.10;;;10.20;99.90;;;;;;5032253;28;20125;-35
2023/05/14 00:54:45;;;;;;;16.17;14.55;;;10.10;99.90;;;;;;5030713;28;20053;-41
2023/05/14 00:57:11;;;;;;;15.95;13.25;;;10.00;99.90;;;;;;5031942;28;20068;-43
2023/05/14 00:59:39;;;;;;;17.20;14.05;;;10.00;99.90;;;;;;5018858;28;20491;-36
2023/05/14 01:02:05;;;;;;;16.80;14.02;;;10.00;99.90;;;;;;5030985;28;20051;-42
2023/05/14 01:04:31;;;;;;;17.75;14.35;;;10.00;99.90;;;;;;5031281;28;20041;-43
2023/05/14 01:07:32;;;;;;;16.42;14.68;;;10.00;99.90;;;;;;5011215;28;20063;-35
2023/05/14 01:10:04;;;;;;;16.25;14.43;;;10.00;99.90;;;;;;5012546;28;20643;-42
2023/05/14 01:12:52;;;;;;;17.70;14.10;;;10.00;99.90;;;;;;5010881;28;20060;-41
2023/05/14 01:15:25;;;;;;;19.00;14.25;;;10.00;99.90;;;;;;5011899;28;20045;-40
2023/05/14 01:17:55;;;;;;;20.40;15.13;;;10.00;99.90;;;;;;5031939;28;20045;-41
2023/05/14 01:20:21;;;;;;;19.10;15.07;;;10.00;99.90;;;;;;5031652;28;20888;-44
2023/05/14 01:22:46;;;;;;;19.80;16.15;;;10.00;99.90;;;;;;5032186;28;20045;-39
2023/05/14 01:25:12;;;;;;;20.45;16.85;;;9.90;99.90;;;;;;5030769;28;20064;-35
2023/05/14 01:27:54;;;;;;;20.98;16.67;;;9.90;99.90;;;;;;5031552;28;20076;-44
2023/05/14 01:30:32;;;;;;;18.65;16.75;;;9.90;99.90;;;;;;5033187;28;20489;-39
2023/05/14 01:33:02;;;;;;;19.80;17.20;;;9.90;99.90;;;;;;5033501;28;20045;-42
2023/05/14 01:35:29;;;;;;;21.25;17.85;;;9.90;99.90;;;;;;5001038;28;20042;-42
2023/05/14 01:37:57;;;;;;;20.65;17.27;;;9.90;99.90;;;;;;5026826;28;20053;-42
2023/05/14 01:40:24;;;;;;;19.92;17.25;;;9.90;99.90;;;;;;5022516;28;20159;-41
2023/05/14 01:42:52;;;;;;;21.67;16.48;;;9.90;99.90;;;;;;5015557;28;20046;-37
2023/05/14 01:45:23;;;;;;;19.15;16.00;;;9.90;99.90;;;;;;5014232;28;20077;-47
2023/05/14 01:47:49;;;;;;;17.23;15.43;;;9.90;99.90;;;;;;5017533;28;20077;-41
2023/05/14 01:50:15;;;;;;;19.08;15.73;;;9.90;99.90;;;;;;5034912;28;20069;-38
2023/05/14 01:52:41;;;;;;;17.60;15.77;;;9.90;99.90;;;;;;5034629;28;20049;-41
2023/05/14 01:55:07;;;;;;;18.90;16.65;;;9.90;99.90;;;;;;5034019;28;20479;-39
2023/05/14 01:57:33;;;;;;;17.15;14.90;;;9.90;99.90;;;;;;5034500;28;20041;-44
2023/05/14 01:59:58;;;;;;;18.65;16.27;;;9.90;99.90;;;;;;5034634;28;20048;-42
2023/05/14 02:02:24;;;;;;;18.10;16.17;;;9.80;99.90;;;;;;5009903;28;20610;-45
2023/05/14 02:04:51;;;;;;;19.27;17.02;;;9.80;99.90;;;;;;5022480;28;20195;-38
2023/05/14 02:07:17;;;;;;;18.02;16.10;;;9.80;99.90;;;;;;5030890;28;20056;-43
2023/05/14 02:09:42;;;;;;;20.08;16.40;;;9.70;99.90;;;;;;5034940;28;20049;-43
2023/05/14 02:12:09;;;;;;;19.92;17.55;;;9.70;99.90;;;;;;5034913;28;20577;-45
2023/05/14 02:14:35;;;;;;;20.40;16.40;;;9.70;99.90;;;;;;5033773;28;20048;-38
2023/05/14 02:17:02;;;;;;;21.17;16.50;;;9.70;99.90;;;;;;5033609;28;20044;-42
2023/05/14 02:19:28;;;;;;;21.33;17.40;;;9.70;99.90;;;;;;5034518;28;20053;-42
2023/05/14 02:21:54;;;;;;;21.63;16.38;;;9.70;99.90;;;;;;5033988;28;20047;-41
2023/05/14 02:24:20;;;;;;;21.60;16.83;;;9.70;99.90;;;;;;5033888;28;20041;-42
2023/05/14 02:26:46;;;;;;;20.33;17.17;;;9.70;99.90;;;;;;5033056;28;20460;-35
2023/05/14 02:29:11;;;;;;;25.92;17.58;;;9.70;99.90;;;;;;5032971;28;20482;-41
2023/05/14 02:31:37;;;;;;;18.98;15.32;;;9.70;99.90;;;;;;5034179;28;20357;-42
2023/05/14 02:34:05;;;;;;;19.33;15.35;;;9.80;99.90;;;;;;5016043;28;20463;-46
2023/05/14 02:36:31;;;;;;;27.67;16.98;;;9.80;99.90;;;;;;5011929;28;20101;-38
2023/05/14 02:38:58;;;;;;;17.38;15.25;;;9.80;99.90;;;;;;5033301;28;20049;-43
2023/05/14 02:41:23;;;;;;;21.73;15.40;;;9.80;99.90;;;;;;5025175;28;20133;-43
2023/05/14 02:43:49;;;;;;;21.13;15.63;;;9.80;99.90;;;;;;5014490;28;20400;-43
2023/05/14 02:46:14;;;;;;;17.40;14.70;;;9.80;99.90;;;;;;5027264;28;20494;-41
2023/05/14 02:48:40;;;;;;;18.50;14.85;;;9.80;99.90;;;;;;5023176;28;20051;-42
2023/05/14 02:51:06;;;;;;;14.90;13.23;;;9.80;99.90;;;;;;5033792;28;20049;-39
2023/05/14 02:53:32;;;;;;;17.85;15.00;;;9.80;99.90;;;;;;5033846;28;20074;-45
2023/05/14 02:55:58;;;;;;;19.10;14.55;;;9.80;99.90;;;;;;5033237;28;20383;-44
2023/05/14 02:58:23;;;;;;;17.58;13.60;;;9.80;99.90;;;;;;5034083;28;20116;-43
2023/05/14 03:00:49;;;;;;;17.85;14.75;;;9.80;99.90;;;;;;5033769;28;20045;-36
2023/05/14 03:03:15;;;;;;;18.50;14.10;;;9.70;99.90;;;;;;5034292;28;20052;-41
2023/05/14 03:05:41;;;;;;;17.52;14.65;;;9.80;99.90;;;;;;5032446;28;20052;-39
2023/05/14 03:08:07;;;;;;;22.38;14.25;;;9.80;99.90;;;;;;5030818;28;20052;-39
2023/05/14 03:10:32;;;;;;;16.77;14.50;;;9.80;99.90;;;;;;5032991;28;20144;-48
2023/05/14 03:12:58;;;;;;;17.33;14.55;;;9.80;99.90;;;;;;5033823;28;20056;-42
2023/05/14 03:15:24;;;;;;;18.98;14.98;;;9.80;99.90;;;;;;5032268;28;20045;-46
2023/05/14 03:17:50;;;;;;;17.23;14.70;;;9.80;99.90;;;;;;5034167;28;20110;-36
2023/05/14 03:20:15;;;;;;;17.95;14.15;;;9.80;99.90;;;;;;5033328;28;20057;-42
2023/05/14 03:22:41;;;;;;;18.40;14.75;;;9.80;99.90;;;;;;5032886;28;20365;-42
2023/05/14 03:25:07;;;;;;;16.35;14.07;;;9.80;99.90;;;;;;5032297;28;20615;-46
2023/05/14 03:27:33;;;;;;;28.70;16.40;;;9.80;99.90;;;;;;5032852;28;20099;-45
2023/05/14 03:29:59;;;;;;;19.52;14.45;;;9.80;99.90;;;;;;5033590;28;20037;-40
2023/05/14 03:32:25;;;;;;;17.02;14.65;;;9.80;99.90;;;;;;5033431;28;20090;-42
2023/05/14 03:34:51;;;;;;;18.92;15.35;;;9.70;99.90;;;;;;5001407;28;20053;-40
2023/05/14 03:37:16;;;;;;;21.55;15.88;;;9.80;99.90;;;;;;5013120;28;20429;-41
2023/05/14 03:39:42;;;;;;;16.08;14.38;;;9.80;99.90;;;;;;5024793;28;20041;-39
2023/05/14 03:42:07;;;;;;;22.38;17.00;;;9.80;99.90;;;;;;5013061;28;20058;-45
2023/05/14 03:44:33;;;;;;;24.63;16.92;;;9.70;99.90;;;;;;5010818;28;20094;-43
2023/05/14 03:46:59;;;;;;;21.20;15.98;;;9.70;99.90;;;;;;5013666;28;20049;-38
2023/05/14 03:49:24;;;;;;;20.92;16.38;;;9.70;99.90;;;;;;5028197;28;20090;-41
2023/05/14 03:51:50;;;;;;;22.83;16.83;;;9.70;99.90;;;;;;5033163;28;20464;-41
2023/05/14 03:54:16;;;;;;;23.67;16.95;;;9.70;99.90;;;;;;5029654;28;20086;-39
2023/05/14 03:56:41;;;;;;;22.08;17.38;;;9.70;99.90;;;;;;5033259;28;20599;-39
2023/05/14 03:59:07;;;;;;;22.10;16.77;;;9.70;99.90;;;;;;5033376;27;20121;-41
2023/05/14 04:01:33;;;;;;;22.83;17.45;;;9.70;99.90;;;;;;5013216;28;20033;-47
2023/05/14 04:03:58;;;;;;;23.00;17.15;;;9.70;99.90;;;;;;5024072;28;20053;-38
2023/05/14 04:06:24;;;;;;;25.33;18.65;;;9.80;99.90;;;;;;5030373;28;20281;-44
2023/05/14 04:08:50;;;;;;;20.70;17.38;;;9.80;99.90;;;;;;5014645;28;20305;-41
2023/05/14 04:11:15;;;;;;;23.58;17.75;;;9.80;99.90;;;;;;5012739;28;20380;-43
2023/05/14 04:13:41;;;;;;;19.65;15.90;;;9.90;99.90;;;;;;5028753;28;20068;-39
2023/05/14 04:16:07;;;;;;;18.52;15.98;;;9.80;99.90;;;;;;5032447;28;20078;-39
2023/05/14 04:18:35;;;;;;;26.05;14.80;;;9.90;99.90;;;;;;5030525;28;20045;-47
2023/05/14 04:21:02;;;;;;;22.98;14.40;;;9.90;99.90;;;;;;5033127;28;20051;-39
2023/05/14 04:23:30;;;;;;;22.52;14.77;;;10.00;99.90;;;;;;5032052;28;20049;-42
2023/05/14 04:25:56;;;;;;;19.27;12.98;;;10.00;99.90;;;;;;5032063;28;20515;-36
2023/05/14 04:28:22;;;;;;;21.40;13.80;;;10.10;99.90;;;;;;5032562;28;20164;-40
2023/05/14 04:30:48;;;;;;;24.15;14.85;;;10.10;99.90;;;;;;5032618;28;20131;-44
2023/05/14 04:33:14;;;;;;;22.00;13.68;;;10.30;99.90;;;;;;5025464;28;20042;-44
2023/05/14 04:35:40;;;;;;;19.50;13.48;;;10.40;99.90;;;;;;5001032;28;20049;-43
2023/05/14 04:38:06;;;;;;;26.45;14.63;;;10.60;99.90;;;;;;5026264;28;20049;-41
2023/05/14 04:40:31;;;;;;;20.88;13.57;;;10.80;99.90;;;;;;5032291;28;20090;-42
2023/05/14 04:42:57;;;;;;;21.33;13.88;;;11.00;99.90;;;;;;5011924;28;20049;-39
2023/05/14 04:45:23;;;;;;;26.20;13.88;;;11.20;99.90;;;;;;5020565;28;20537;-43
2023/05/14 04:47:48;;;;;;;20.48;12.43;;;11.50;99.90;;;;;;5032123;28;20041;-42
2023/05/14 04:50:14;;;;;;;28.88;14.70;;;11.50;99.90;;;;;;5032024;28;20172;-36
2023/05/14 04:52:40;;;;;;;26.73;13.20;;;11.50;99.90;;;;;;5018537;28;20046;-41
2023/05/14 04:55:06;;;;;;;23.23;12.82;;;11.60;99.90;;;;;;5021884;28;20560;-40
2023/05/14 04:57:32;;;;;;;22.27;12.82;;;11.70;99.90;;;;;;5028067;28;20044;-43
2023/05/14 04:59:57;;;;;;;22.98;13.52;;;11.90;99.90;;;;;;5031232;28;20045;-41
2023/05/14 05:02:23;;;;;;;25.02;12.75;;;12.10;99.90;;;;;;5031373;28;20387;-38
2023/05/14 05:04:49;;;;;;;18.20;12.23;;;12.30;99.90;;;;;;5031641;28;20041;-41
2023/05/14 05:07:14;;;;;;;20.95;12.25;;;12.50;99.90;;;;;;5022276;28;20469;-38
2023/05/14 05:09:41;;;;;;;21.15;11.25;;;12.80;99.90;;;;;;5035232;28;20045;-39
2023/05/14 05:12:07;;;;;;;25.42;13.23;;;13.00;99.90;;;;;;5035673;28;20045;-50
2023/05/14 05:14:32;;;;;;;25.73;12.52;;;13.10;99.90;;;;;;5034661;28;20052;-45
2023/05/14 05:16:58;;;;;;;21.70;11.00;;;13.20;99.90;;;;;;5035215;28;20049;-41
2023/05/14 05:19:24;;;;;;;17.55;10.70;;;13.50;99.90;;;;;;5035074;28;20045;-45
2023/05/14 05:21:50;;;;;;;17.92;10.70;;;13.90;99.90;;;;;;5034540;28;20045;-40
2023/05/14 05:24:16;;;;;;;19.15;11.27;;;14.00;99.90;;;;;;5034354;28;20118;-37
2023/05/14 05:26:41;;;;;;;18.92;10.02;;;14.00;99.90;;;;;;5020231;28;20080;-42
2023/05/14 05:29:07;;;;;;;19.10;11.63;;;13.80;99.90;;;;;;5035460;28;20051;-42
2023/05/14 05:31:33;;;;;;;20.92;10.98;;;13.90;99.90;;;;;;5035018;28;20063;-46
2023/05/14 05:33:59;;;;;;;17.83;11.32;;;13.90;99.90;;;;;;5000202;28;20064;-40
2023/05/14 05:36:26;;;;;;;22.95;12.15;;;14.10;99.90;;;;;;5011361;28;20402;-45
2023/05/14 05:38:52;;;;;;;19.55;10.43;;;14.40;99.90;;;;;;5025478;28;20554;-43
2023/05/14 05:41:17;;;;;;;19.17;10.70;;;15.00;99.90;;;;;;5015339;28;20152;-46
2023/05/14 05:43:43;;;;;;;22.00;11.68;;;15.20;99.90;;;;;;5014945;28;20060;-44
2023/05/14 05:46:08;;;;;;;19.23;10.57;;;14.90;99.90;;;;;;5030774;28;20132;-39
2023/05/14 05:48:34;;;;;;;21.83;11.05;;;15.00;99.90;;;;;;5035709;28;20094;-41
2023/05/14 05:51:00;;;;;;;19.45;12.52;;;15.00;99.90;;;;;;5035535;28;20105;-41
2023/05/14 05:53:26;;;;;;;12.38;10.90;;;15.60;99.90;;;;;;5034352;28;20097;-37
2023/05/14 05:55:51;;;;;;;13.60;10.65;;;15.80;99.90;;;;;;5016411;28;20136;-39
2023/05/14 05:58:17;;;;;;;18.25;10.98;;;15.90;99.90;;;;;;5035333;28;20465;-43
2023/05/14 06:00:44;;;;;;;14.02;11.00;;;16.10;99.90;;;;;;5035043;28;20438;-43
2023/05/14 06:03:10;;;;;;;19.02;11.05;;;16.50;99.90;;;;;;5035003;28;20040;-37
2023/05/14 06:05:36;;;;;;;18.42;11.23;;;16.80;99.90;;;;;;5034850;28;20102;-37
2023/05/14 06:08:01;;;;;;;18.73;11.70;;;17.00;99.90;;;;;;5024022;28;20364;-42
2023/05/14 06:10:27;;;;;;;15.27;10.18;;;17.30;99.90;;;;;;5014644;28;20763;-42
2023/05/14 06:12:53;;;;;;;17.70;10.95;;;17.80;99.90;;;;;;5014923;28;20046;-48
2023/05/14 06:15:19;;;;;;;17.98;10.65;;;18.00;99.90;;;;;;5016919;28;20461;-41
2023/05/14 06:17:45;;;;;;;18.95;10.77;;;18.00;99.90;;;;;;5033755;28;20400;-39
2023/05/14 06:20:11;;;;;;;16.23;10.45;;;18.30;99.90;;;;;;5021588;28;20132;-41
2023/05/14 06:22:36;;;;;;;15.82;10.13;;;17.80;99.90;;;;;;5032711;28;20941;-37
2023/05/14 06:25:03;;;;;;;18.30;9.77;;;17.60;99.90;;;;;;5033575;28;20578;-46
2023/05/14 06:27:28;;;;;;;15.35;9.23;;;17.20;99.90;;;;;;5034791;28;20077;-44
2023/05/14 06:29:54;;;;;;;15.32;9.18;;;16.80;99.90;;;;;;5034530;28;20141;-42
2023/05/14 06:32:20;;;;;;;16.65;9.15;;;16.50;99.90;;;;;;5018431;28;20086;-45
2023/05/14 06:34:46;;;;;;;18.33;8.18;;;16.40;99.90;;;;;;5011639;28;20044;-46
2023/05/14 06:37:11;;;;;;;11.80;8.45;;;16.00;99.90;;;;;;5022215;28;20045;-41
2023/05/14 06:39:37;;;;;;;17.02;9.35;;;16.00;99.90;;;;;;5030234;28;20053;-42
2023/05/14 06:42:03;;;;;;;18.08;8.65;;;16.40;99.90;;;;;;4991640;27;20053;-45
2023/05/14 06:44:29;;;;;;;19.83;9.00;;;16.70;99.90;;;;;;5009620;27;20393;-48
2023/05/14 06:46:56;;;;;;;15.00;8.73;;;16.80;99.90;;;;;;5003646;28;20042;-46
2023/05/14 06:49:21;;;;;;;18.80;9.65;;;16.90;99.90;;;;;;5010936;28;20472;-37
2023/05/14 06:51:47;;;;;;;20.00;9.05;;;17.00;99.90;;;;;;5002180;28;20059;-41
2023/05/14 06:54:13;;;;;;;14.90;8.27;;;17.10;99.90;;;;;;5009387;28;20037;-44
2023/05/14 06:56:38;;;;;;;15.02;9.02;;;17.10;99.90;;;;;;5011149;28;20569;-45
2023/05/14 06:59:04;;;;;;;18.25;8.80;;;17.20;99.90;;;;;;5013944;28;20045;-46
2023/05/14 07:01:30;;;;;;;12.85;9.20;;;17.20;99.90;;;;;;5019386;28;20279;-37
2023/05/14 07:03:55;;;;;;;16.88;8.98;;;16.90;99.90;;;;;;5013711;28;20132;-44
2023/05/14 07:06:21;;;;;;;14.35;9.90;;;17.10;99.90;;;;;;5003354;28;20051;-37
2023/05/14 07:08:47;;;;;;;15.82;8.50;;;17.40;99.90;;;;;;5011747;28;20033;-37
2023/05/14 07:11:13;;;;;;;14.75;7.85;;;18.10;99.90;;;;;;5012283;28;20421;-42
2023/05/14 07:13:39;;;;;;;21.85;9.13;;;18.40;99.90;;;;;;5009746;28;20049;-43
2023/05/14 07:16:06;;;;;;;15.00;8.30;;;18.10;99.90;;;;;;5012265;28;20400;-43
2023/05/14 07:18:32;;;;;;;13.73;7.68;;;18.00;99.90;;;;;;5010675;28;20060;-42
2023/05/14 07:20:57;;;;;;;16.38;8.23;;;17.90;99.90;;;;;;4991725;28;20109;-37
2023/05/14 07:23:23;;;;;;;14.73;8.63;;;18.00;99.90;;;;;;5009815;28;20567;-42
2023/05/14 07:25:49;;;;;;;16.30;9.43;;;18.10;99.90;;;;;;5013712;27;20109;-44
2023/05/14 07:28:14;;;;;;;16.30;9.13;;;17.90;99.90;;;;;;5010013;28;20466;-39
2023/05/14 07:30:40;;;;;;;13.13;9.20;;;17.70;99.90;;;;;;5012852;28;20128;-43
2023/05/14 07:33:06;;;;;;;16.90;10.07;;;17.40;99.90;;;;;;5009236;28;20140;-44
2023/05/14 07:35:32;;;;;;;16.63;9.73;;;17.40;99.90;;;;;;5003517;28;20061;-40
2023/05/14 07:37:57;;;;;;;14.82;9.77;;;17.10;99.90;;;;;;5008396;28;20666;-37
2023/05/14 07:40:23;;;;;;;15.30;9.35;;;17.30;99.90;;;;;;5010026;28;20045;-45
2023/05/14 07:42:49;;;;;;;20.52;9.93;;;17.40;99.90;;;;;;5000074;28;20050;-39
2023/05/14 07:45:15;;;;;;;18.48;9.15;;;17.90;99.90;;;;;;5003401;28;20053;-46
2023/05/14 07:47:41;;;;;;;18.80;8.68;;;18.20;99.90;;;;;;5012714;28;20544;-49
2023/05/14 07:50:07;;;;;;;18.05;9.95;;;18.70;99.90;;;;;;5007176;28;20046;-43
2023/05/14 07:52:33;;;;;;;16.38;8.90;;;19.20;99.90;;;;;;5028566;28;20048;-47
2023/05/14 07:55:00;;;;;;;14.82;9.27;;;19.60;99.90;;;;;;5023873;28;20081;-43
2023/05/14 07:57:26;;;;;;;15.50;9.40;;;19.90;99.90;;;;;;5028864;28;20484;-48
2023/05/14 07:59:51;;;;;;;17.23;9.40;;;19.80;99.90;;;;;;5032811;28;20040;-39
2023/05/14 08:02:17;;;;;;;19.42;9.30;;;19.80;99.90;;;;;;5015902;28;20053;-41
2023/05/14 08:04:43;;;;;;;13.88;8.40;;;20.00;99.90;;;;;;5000007;28;20037;-40
2023/05/14 08:07:09;;;;;;;12.73;8.95;;;20.20;99.90;;;;;;5001187;28;21123;-44
2023/05/14 08:09:35;;;;;;;20.88;9.25;;;20.20;99.90;;;;;;5003607;28;20071;-43
2023/05/14 08:12:01;;;;;;;15.13;8.25;;;19.70;99.90;;;;;;5012875;28;20041;-49
2023/05/14 08:14:27;;;;;;;14.70;9.38;;;19.80;99.90;;;;;;5011800;28;20080;-46
2023/05/14 08:16:53;;;;;;;15.90;7.97;;;19.40;99.90;;;;;;5012510;28;20149;-41
2023/05/14 08:19:19;;;;;;;16.67;8.10;;;19.50;99.90;;;;;;5012532;28;20073;-47
2023/05/14 08:21:45;;;;;;;16.45;8.80;;;19.50;99.90;;;;;;5012696;28;20069;-41
2023/05/14 08:24:11;;;;;;;12.00;8.65;;;19.50;99.90;;;;;;5011358;28;20053;-45
2023/05/14 08:26:37;;;;;;;15.85;8.55;;;19.30;99.90;;;;;;5012777;28;20521;-43
2023/05/14 08:29:03;;;;;;;17.65;9.30;;;19.10;99.90;;;;;;5011164;28;20120;-49
2023/05/14 08:31:29;;;;;;;14.38;7.80;;;19.20;99.90;;;;;;5011960;28;20387;-43
2023/05/14 08:33:55;;;;;;;13.52;8.52;;;18.70;99.90;;;;;;5004821;28;20054;-41
2023/05/14 08:36:21;;;;;;;15.20;8.23;;;18.70;99.90;;;;;;5004597;28;20037;-46
2023/05/14 08:38:47;;;;;;;14.52;7.80;;;19.00;99.90;;;;;;5011847;28;20054;-41
2023/05/14 08:41:14;;;;;;;13.27;7.40;;;19.10;99.90;;;;;;5011580;28;20071;-43
2023/05/14 08:43:50;;;;;;;12.48;7.85;;;18.60;99.90;;;;;;5045774;28;20135;-42
2023/05/14 08:46:16;;;;;;;17.65;8.55;;;18.60;99.90;;;;;;5030326;28;20048;-42
2023/05/14 08:48:47;;;;;;;17.55;8.50;;;18.70;99.90;;;;;;5027936;28;20132;-41
2023/05/14 08:51:13;;;;;;;15.38;9.27;;;18.50;99.90;;;;;;5031246;28;20057;-38
2023/05/14 08:53:39;;;;;;;14.50;7.60;;;18.80;99.90;;;;;;5032489;28;20447;-52
2023/05/14 08:56:07;;;;;;;13.52;7.88;;;19.00;99.90;;;;;;5032398;28;20539;-39
2023/05/14 08:58:33;;;;;;;17.88;7.78;;;19.10;99.90;;;;;;5031285;28;20060;-48
2023/05/14 09:00:58;;;;;;;19.52;8.88;;;19.00;99.90;;;;;;5031689;28;20037;-41
2023/05/14 09:03:24;;;;;;;17.42;7.88;;;19.00;99.90;;;;;;5032191;28;20476;-49
2023/05/14 09:05:50;;;;;;;12.70;6.97;;;19.30;99.90;;;;;;5031837;28;20125;-41
2023/05/14 09:08:16;;;;;;;13.20;8.43;;;19.50;99.90;;;;;;5019206;28;20046;-49
2023/05/14 09:10:42;;;;;;;15.50;8.00;;;19.20;99.90;;;;;;5017112;28;20156;-44
2023/05/14 09:13:09;;;;;;;13.02;7.53;;;19.10;99.90;;;;;;5032714;28;20061;-47
2023/05/14 09:15:37;;;;;;;12.95;7.97;;;19.00;99.90;;;;;;5031393;28;20120;-42
2023/05/14 09:18:06;;;;;;;15.88;7.82;;;19.00;99.90;;;;;;5021754;28;20050;-49
2023/05/14 09:20:32;;;;;;;14.85;8.52;;;19.30;99.90;;;;;;5017005;28;20524;-38
2023/05/14 09:23:01;;;;;;;14.48;8.75;;;19.10;99.90;;;;;;5032332;28;20429;-46
2023/05/14 09:25:29;;;;;;;15.80;9.30;;;19.00;99.90;;;;;;5030641;28;20116;-42
2023/05/14 09:27:55;;;;;;;18.85;9.30;;;19.30;99.90;;;;;;5032289;28;20442;-41
2023/05/14 09:30:22;;;;;;;13.18;8.52;;;19.30;99.90;;;;;;5032746;28;20368;-41
2023/05/14 09:32:49;;;;;;;16.75;8.77;;;19.30;99.90;;;;;;5029985;28;20080;-44
2023/05/14 09:35:23;;;;;;;18.65;8.55;;;19.20;99.90;;;;;;4997313;28;20054;-40
2023/05/14 09:37:51;;;;;;;14.38;8.52;;;19.10;99.90;;;;;;5025580;28;20056;-41
2023/05/14 09:40:19;;;;;;;18.98;8.90;;;19.20;99.90;;;;;;5032321;28;20111;-39
2023/05/14 09:42:45;;;;;;;13.27;8.75;;;19.60;99.90;;;;;;5026140;28;20043;-42
2023/05/14 09:45:11;;;;;;;15.52;8.80;;;20.00;99.90;;;;;;5031449;28;20048;-42
2023/05/14 09:47:38;;;;;;;12.23;8.60;;;19.90;99.90;;;;;;5031780;28;20049;-45
2023/05/14 09:50:05;;;;;;;14.10;9.25;;;20.00;99.90;;;;;;5032333;28;20045;-41
2023/05/14 09:52:31;;;;;;;16.55;9.70;;;20.10;99.90;;;;;;5035549;28;20045;-47
2023/05/14 09:54:57;;;;;;;10.88;8.40;;;19.90;99.90;;;;;;5025066;28;20042;-42
2023/05/14 09:57:23;;;;;;;17.00;9.25;;;19.80;99.90;;;;;;5014878;28;20065;-43
2023/05/14 09:59:49;;;;;;;11.02;8.55;;;19.80;99.90;;;;;;5015116;28;20045;-41
2023/05/14 10:02:40;;;;;;;16.63;8.25;;;19.80;99.90;;;;;;5014611;28;20550;-38
2023/05/14 10:05:06;;;;;;;15.35;8.85;;;19.90;99.90;;;;;;5074748;28;20501;-39
2023/05/14 10:07:43;;;;;;;12.50;8.07;;;20.00;99.90;;;;;;5074698;28;20162;-41
2023/05/14 10:10:14;;;;;;;13.68;8.07;;;20.00;99.90;;;;;;5074869;28;20054;-44
2023/05/14 10:12:43;;;;;;;16.02;9.05;;;20.10;99.90;;;;;;5041206;28;20070;-47
2023/05/14 10:15:18;;;;;;;11.77;7.00;;;20.40;99.90;;;;;;5074245;28;20363;-49
2023/05/14 10:17:48;;;;;;;15.18;8.07;;;20.60;99.90;;;;;;5074961;28;20086;-41
2023/05/14 10:20:17;;;;;;;13.25;8.45;;;20.60;99.90;;;;;;5075141;28;20173;-48
2023/05/14 10:22:43;;;;;;;13.07;8.65;;;20.70;99.90;;;;;;5074489;28;20122;-44
2023/05/14 10:25:10;;;;;;;14.05;7.28;;;20.70;99.90;;;;;;5077141;28;20048;-48
2023/05/14 10:27:36;;;;;;;12.70;7.25;;;20.90;99.90;;;;;;5095734;28;20132;-42
2023/05/14 10:30:09;;;;;;;12.95;7.38;;;20.80;99.90;;;;;;5096150;28;20135;-43
2023/05/14 10:32:36;;;;;;;15.25;7.55;;;20.60;99.90;;;;;;5095506;28;20451;-48
2023/05/14 10:35:19;;;;;;;14.48;7.53;;;20.80;99.90;;;;;;5060289;28;20052;-52
2023/05/14 10:37:45;;;;;;;14.13;8.13;;;20.80;99.90;;;;;;5087498;28;20040;-47
2023/05/14 10:40:12;;;;;;;12.15;7.63;;;20.80;99.90;;;;;;5095087;28;20520;-45
2023/05/14 10:42:39;;;;;;;13.73;7.90;;;20.80;99.90;;;;;;5032719;28;20053;-48
2023/05/14 10:45:10;;;;;;;13.73;8.40;;;21.10;99.90;;;;;;5012747;28;20057;-41
2023/05/14 10:47:37;;;;;;;13.95;7.30;;;21.20;99.90;;;;;;5014900;28;20056;-44
2023/05/14 10:50:05;;;;;;;10.55;7.38;;;21.40;99.90;;;;;;5034592;28;20065;-47
2023/05/14 10:52:32;;;;;;;15.52;7.95;;;21.50;99.90;;;;;;5033137;28;20080;-45
2023/05/14 10:55:01;;;;;;;15.07;8.65;;;21.30;99.90;;;;;;5015996;28;20052;-45
2023/05/14 10:57:28;;;;;;;9.77;6.88;;;21.30;99.90;;;;;;5032423;28;20380;-46
2023/05/14 10:59:56;;;;;;;11.13;7.88;;;21.50;99.90;;;;;;5034340;28;20045;-38
2023/05/14 11:02:25;;;;;;;10.25;6.80;;;21.60;99.90;;;;;;5033297;28;20163;-52
2023/05/14 11:05:03;;;;;;;15.23;9.02;;;21.70;99.90;;;;;;5031744;28;20049;-44
2023/05/14 11:07:34;;;;;;;17.23;7.82;;;21.80;99.90;;;;;;5026241;28;20046;-39
2023/05/14 11:10:05;;;;;;;12.23;8.70;;;21.90;99.90;;;;;;5014735;28;20242;-40
2023/05/14 11:12:32;;;;;;;14.52;9.05;;;22.10;99.90;;;;;;5014837;28;20098;-49
2023/05/14 11:15:00;;;;;;;14.45;8.05;;;22.10;99.90;;;;;;5014091;28;20056;-46
2023/05/14 11:17:27;;;;;;;14.80;7.60;;;22.10;99.90;;;;;;5013773;28;20053;-40
2023/05/14 11:19:54;;;;;;;11.63;6.93;;;22.10;99.90;;;;;;5012480;28;20053;-48
2023/05/14 11:22:21;;;;;;;9.73;7.65;;;22.10;99.90;;;;;;4999998;28;20077;-44
2023/05/14 11:24:47;;;;;;;13.80;7.90;;;22.10;99.90;;;;;;5011200;28;20573;-43
2023/05/14 11:27:13;;;;;;;9.65;7.97;;;22.20;99.90;;;;;;5014055;28;20495;-41
2023/05/14 11:29:59;;;;;;;10.85;7.38;;;22.20;99.90;;;;;;5013895;28;20422;-49
2023/05/14 11:32:28;;;;;;;9.02;7.18;;;22.20;99.90;;;;;;5008267;28;20041;-39
2023/05/14 11:34:54;;;;;;;11.18;7.63;;;22.10;99.90;;;;;;4997155;28;20136;-44
2023/05/14 11:37:19;;;;;;;12.63;7.53;;;22.10;99.90;;;;;;5013636;28;20494;-45
2023/05/14 11:39:57;;;;;;;11.80;7.07;;;22.00;99.90;;;;;;5013733;28;20053;-42
2023/05/14 11:42:24;;;;;;;9.35;6.47;;;22.10;99.90;;;;;;5012243;28;20227;-45
2023/05/14 11:44:51;;;;;;;10.65;7.43;;;22.00;99.90;;;;;;5015936;28;20220;-37
2023/05/14 11:47:18;;;;;;;14.80;7.88;;;22.00;99.90;;;;;;5033945;28;20295;-44
2023/05/14 11:49:44;;;;;;;10.88;7.22;;;21.90;99.90;;;;;;5033444;28;20471;-46
2023/05/14 11:52:13;;;;;;;10.00;7.18;;;22.00;99.90;;;;;;5034198;28;20561;-39
2023/05/14 11:54:40;;;;;;;12.27;7.53;;;21.80;99.90;;;;;;5031939;28;20072;-41
2023/05/14 11:57:18;;;;;;;6.90;6.20;;;21.80;99.90;;;;;;5021123;28;20101;-38
2023/05/14 11:59:44;;;;;;;8.00;5.40;;;21.80;99.90;;;;;;5013670;28;20392;-40
2023/05/14 12:02:15;;;;;;;10.95;7.40;;;21.80;99.90;;;;;;5027367;28;20041;-40
2023/05/14 12:04:42;;;;;;;15.15;7.03;;;21.80;99.90;;;;;;5031169;28;20041;-47
2023/05/14 12:07:12;;;;;;;9.10;6.10;;;21.80;99.90;;;;;;5029500;28;20049;-48
2023/05/14 12:09:48;;;;;;;38.17;7.50;;;22.00;99.90;;;;;;5012622;28;20049;-50
2023/05/14 12:12:15;;;;;;;10.38;6.57;;;22.20;99.90;;;;;;5018031;28;20068;-42
2023/05/14 12:14:42;;;;;;;10.05;6.53;;;22.40;99.90;;;;;;5030865;28;20049;-41
2023/05/14 12:17:16;;;;;;;11.65;7.45;;;22.50;99.90;;;;;;5033298;28;20049;-50
2023/05/14 12:19:43;;;;;;;10.95;6.70;;;22.60;99.90;;;;;;5033109;28;20044;-49
2023/05/14 12:22:10;;;;;;;8.68;5.88;;;22.80;99.90;;;;;;5033142;28;20045;-46
2023/05/14 12:24:37;;;;;;;11.15;6.50;;;23.00;99.90;;;;;;5032512;28;20254;-44
2023/05/14 12:27:04;;;;;;;14.40;7.72;;;23.10;99.90;;;;;;5032048;28;20432;-47
2023/05/14 12:29:30;;;;;;;10.20;6.57;;;23.10;99.90;;;;;;5033656;28;20448;-42
2023/05/14 12:31:59;;;;;;;10.57;7.13;;;23.00;99.90;;;;;;5033396;28;20525;-44